Weather at Calvi-Sainte-Catherine Airport

Public forecast

Using degrees Celsius for public forecast. Weather courtesy of forecast.io.

Current aviation weather report (METAR) for Calvi-Sainte-Catherine Airport

Report is more than 6 hours old.

2022/11/14 15:30 (retrieved 2 years ago)

LFKC 141530Z AUTO 06002KT CAVOK 17/12 Q1020 NOSIG

Aviation forecast (TAF) for Calvi-Sainte-Catherine Airport

Forecast is more than 12 hours old.

2023/02/22 19:35 (retrieved 1 year ago)

TAF LFKC 221928Z 2219/2315 CNL